Time;durP1;ratioP1;P1;durP2;ratioP2;P2;SDS_P1;SDS_P2;PMS_P1;PMS_P2;Temp;Humidity;BMP_temperature;BMP_pressure;BME280_temperature;BME280_humidity;BME280_pressure;Samples;Min_cycle;Max_cycle;Signal;HPM_P1;HPM_P2
2021/07/22 00:00:18;;;;;;;10.48;7.68;;;;;;;;;;4974620;28;20275;-55
2021/07/22 00:02:44;;;;;;;11.02;8.00;;;;;;;;;;4966444;28;20201;-56
2021/07/22 00:05:10;;;;;;;10.00;8.35;;;;;;;;;;4973138;28;20177;-55
2021/07/22 00:07:35;;;;;;;12.77;8.35;;;;;;;;;;4975460;28;20595;-55
2021/07/22 00:10:00;;;;;;;10.25;7.50;;;;;;;;;;4973967;28;20203;-55
2021/07/22 00:12:25;;;;;;;10.73;8.48;;;;;;;;;;4975776;28;20223;-56
2021/07/22 00:14:51;;;;;;;10.57;8.48;;;;;;;;;;4967812;28;20304;-55
2021/07/22 00:17:16;;;;;;;10.13;7.93;;;;;;;;;;4968025;28;20189;-55
2021/07/22 00:19:41;;;;;;;10.77;7.60;;;;;;;;;;4966378;28;20212;-57
2021/07/22 00:22:06;;;;;;;13.05;9.20;;;;;;;;;;4968475;28;20184;-56
2021/07/22 00:24:31;;;;;;;13.57;8.73;;;;;;;;;;4970009;28;20665;-55
2021/07/22 00:26:56;;;;;;;10.48;7.68;;;;;;;;;;4969301;28;20268;-56
2021/07/22 00:29:22;;;;;;;10.65;7.85;;;;;;;;;;4979093;28;20195;-56
2021/07/22 00:31:47;;;;;;;10.52;7.97;;;;;;;;;;4968345;28;20276;-56
2021/07/22 00:34:13;;;;;;;11.63;7.95;;;;;;;;;;4968858;28;20224;-56
2021/07/22 00:36:38;;;;;;;11.18;8.10;;;;;;;;;;4964006;28;20207;-55
2021/07/22 00:39:03;;;;;;;11.00;8.25;;;;;;;;;;4966178;28;20185;-55
2021/07/22 00:41:29;;;;;;;14.18;8.07;;;;;;;;;;4962078;28;20432;-55
2021/07/22 00:43:54;;;;;;;13.05;8.00;;;;;;;;;;4964595;28;20596;-56
2021/07/22 00:46:19;;;;;;;10.73;7.97;;;;;;;;;;4945807;28;20231;-55
2021/07/22 00:48:45;;;;;;;11.70;8.10;;;;;;;;;;4962475;28;20960;-55
2021/07/22 00:51:10;;;;;;;12.70;8.95;;;;;;;;;;4966798;28;20255;-55
2021/07/22 00:53:35;;;;;;;10.18;8.15;;;;;;;;;;4976175;28;20196;-56
2021/07/22 00:56:01;;;;;;;10.57;8.35;;;;;;;;;;4969535;28;20177;-56
2021/07/22 00:58:26;;;;;;;10.20;7.88;;;;;;;;;;4979147;28;20185;-56
2021/07/22 01:00:51;;;;;;;10.63;8.13;;;;;;;;;;5004334;28;20183;-54
2021/07/22 01:03:16;;;;;;;11.77;8.93;;;;;;;;;;4977003;28;20187;-56
2021/07/22 01:05:42;;;;;;;19.25;8.55;;;;;;;;;;4972785;28;20969;-56
2021/07/22 01:08:07;;;;;;;11.07;8.00;;;;;;;;;;4958884;28;20255;-56
2021/07/22 01:10:32;;;;;;;11.93;8.25;;;;;;;;;;4982456;28;20203;-55
2021/07/22 01:12:57;;;;;;;12.50;8.35;;;;;;;;;;4975542;28;20207;-56
2021/07/22 01:15:23;;;;;;;11.43;8.88;;;;;;;;;;4973372;28;20243;-55
2021/07/22 01:17:49;;;;;;;11.65;8.60;;;;;;;;;;4985348;28;20423;-56
2021/07/22 01:20:14;;;;;;;11.60;8.30;;;;;;;;;;4965967;28;20237;-55
2021/07/22 01:22:39;;;;;;;9.48;7.43;;;;;;;;;;4959039;28;20232;-55
2021/07/22 01:25:05;;;;;;;11.93;8.48;;;;;;;;;;4970281;28;20177;-56
2021/07/22 01:27:30;;;;;;;10.52;8.07;;;;;;;;;;4967897;28;20188;-56
2021/07/22 01:29:55;;;;;;;13.65;8.00;;;;;;;;;;4974313;28;20243;-56
2021/07/22 01:32:20;;;;;;;11.32;7.70;;;;;;;;;;4971927;28;20259;-56
2021/07/22 01:34:45;;;;;;;13.05;9.43;;;;;;;;;;4966341;28;20209;-55
2021/07/22 01:37:10;;;;;;;11.45;8.13;;;;;;;;;;4969483;28;20193;-55
2021/07/22 01:39:36;;;;;;;11.18;8.00;;;;;;;;;;4974646;28;20232;-56
2021/07/22 01:42:01;;;;;;;13.47;7.67;;;;;;;;;;4972244;28;20196;-55
2021/07/22 01:44:27;;;;;;;11.07;7.90;;;;;;;;;;4954109;28;20498;-56
2021/07/22 01:46:53;;;;;;;12.00;8.43;;;;;;;;;;4968233;28;20181;-56
2021/07/22 01:49:18;;;;;;;10.82;8.30;;;;;;;;;;4966498;28;20231;-56
2021/07/22 01:51:43;;;;;;;10.93;8.30;;;;;;;;;;4968764;28;20574;-56
2021/07/22 01:54:08;;;;;;;12.35;8.23;;;;;;;;;;4969295;28;20294;-56
2021/07/22 01:56:34;;;;;;;11.10;7.77;;;;;;;;;;4967679;28;20176;-56
2021/07/22 01:59:00;;;;;;;10.52;8.07;;;;;;;;;;4969812;28;20435;-56
2021/07/22 02:01:25;;;;;;;9.27;7.38;;;;;;;;;;4973550;28;20212;-56
2021/07/22 02:03:50;;;;;;;10.80;8.50;;;;;;;;;;4971497;28;20185;-56
2021/07/22 02:06:15;;;;;;;10.83;7.43;;;;;;;;;;4953227;28;20187;-55
2021/07/22 02:08:40;;;;;;;7.65;6.72;;;;;;;;;;4969316;28;21031;-57
2021/07/22 02:11:05;;;;;;;8.90;7.32;;;;;;;;;;4966002;28;20666;-56
2021/07/22 02:13:31;;;;;;;8.43;7.22;;;;;;;;;;4967996;28;20208;-56
2021/07/22 02:15:57;;;;;;;7.80;7.00;;;;;;;;;;4956872;28;20181;-56
2021/07/22 02:18:25;;;;;;;11.57;7.80;;;;;;;;;;4966529;28;20186;-54
2021/07/22 02:20:50;;;;;;;9.02;7.18;;;;;;;;;;4979294;28;20274;-55
2021/07/22 02:23:15;;;;;;;12.57;7.75;;;;;;;;;;4964635;28;20181;-56
2021/07/22 02:25:43;;;;;;;11.20;7.88;;;;;;;;;;4947520;28;20190;-55
2021/07/22 02:28:08;;;;;;;10.05;7.40;;;;;;;;;;4967025;28;20184;-54
2021/07/22 02:30:37;;;;;;;10.85;7.50;;;;;;;;;;4971245;28;20203;-55
2021/07/22 02:33:02;;;;;;;10.13;8.13;;;;;;;;;;4965472;28;20181;-56
2021/07/22 02:35:27;;;;;;;10.32;8.48;;;;;;;;;;4963544;28;20258;-55
2021/07/22 02:37:52;;;;;;;11.88;7.60;;;;;;;;;;4950483;28;20720;-55
2021/07/22 02:40:17;;;;;;;10.93;8.48;;;;;;;;;;4964025;28;20215;-54
2021/07/22 02:42:43;;;;;;;13.18;8.60;;;;;;;;;;4965053;28;20171;-54
2021/07/22 02:45:08;;;;;;;10.90;7.55;;;;;;;;;;4953665;28;20224;-54
2021/07/22 02:47:34;;;;;;;15.30;9.02;;;;;;;;;;4965334;28;20191;-54
2021/07/22 02:49:59;;;;;;;13.70;8.48;;;;;;;;;;4965828;28;20213;-54
2021/07/22 02:52:24;;;;;;;11.07;7.57;;;;;;;;;;4967336;28;20580;-55
2021/07/22 02:54:49;;;;;;;12.75;8.70;;;;;;;;;;4973212;28;20196;-55
2021/07/22 02:57:15;;;;;;;10.95;7.97;;;;;;;;;;4970743;28;20550;-56
2021/07/22 02:59:40;;;;;;;11.82;8.55;;;;;;;;;;4950399;28;20677;-54
2021/07/22 03:02:05;;;;;;;10.43;7.97;;;;;;;;;;4968920;28;20825;-56
2021/07/22 03:04:30;;;;;;;13.15;7.80;;;;;;;;;;4951925;28;20199;-55
2021/07/22 03:06:56;;;;;;;14.85;7.50;;;;;;;;;;4968137;28;20199;-55
2021/07/22 03:09:21;;;;;;;12.43;8.98;;;;;;;;;;4963540;28;20216;-55
2021/07/22 03:11:46;;;;;;;11.68;8.48;;;;;;;;;;4966304;28;20649;-55
2021/07/22 03:14:11;;;;;;;10.80;8.32;;;;;;;;;;4967209;28;20829;-55
2021/07/22 03:16:36;;;;;;;11.45;8.30;;;;;;;;;;4968267;28;20181;-54
2021/07/22 03:19:02;;;;;;;13.05;8.35;;;;;;;;;;4965120;28;20578;-56
2021/07/22 03:21:27;;;;;;;11.93;8.50;;;;;;;;;;4968906;28;20247;-54
2021/07/22 03:23:52;;;;;;;12.07;8.70;;;;;;;;;;4972385;28;20204;-54
2021/07/22 03:26:20;;;;;;;11.15;8.77;;;;;;;;;;4952022;28;20259;-55
2021/07/22 03:28:45;;;;;;;11.68;8.43;;;;;;;;;;4978174;28;20225;-55
2021/07/22 03:31:11;;;;;;;10.27;8.43;;;;;;;;;;4968151;28;20232;-55
2021/07/22 03:33:36;;;;;;;16.60;9.80;;;;;;;;;;4969531;28;20287;-55
2021/07/22 03:36:02;;;;;;;17.33;9.10;;;;;;;;;;4978162;28;20212;-54
2021/07/22 03:38:27;;;;;;;13.43;8.85;;;;;;;;;;4976270;28;20612;-54
2021/07/22 03:40:52;;;;;;;14.32;9.15;;;;;;;;;;4967448;28;20196;-54
2021/07/22 03:43:17;;;;;;;11.82;8.48;;;;;;;;;;4976199;28;20592;-54
2021/07/22 03:45:42;;;;;;;15.48;8.68;;;;;;;;;;4976428;28;20192;-54
2021/07/22 03:48:08;;;;;;;14.77;8.98;;;;;;;;;;4971427;28;20600;-54
2021/07/22 03:50:33;;;;;;;13.13;8.98;;;;;;;;;;4965932;28;20220;-54
2021/07/22 03:52:58;;;;;;;12.10;9.38;;;;;;;;;;4973353;28;20197;-54
2021/07/22 03:55:24;;;;;;;12.15;9.05;;;;;;;;;;4974990;28;20263;-54
2021/07/22 03:57:49;;;;;;;11.07;8.57;;;;;;;;;;4973566;28;20645;-54
2021/07/22 04:00:15;;;;;;;13.27;8.17;;;;;;;;;;4971546;28;20193;-55
2021/07/22 04:02:40;;;;;;;11.32;8.40;;;;;;;;;;4970665;28;20482;-55
2021/07/22 04:05:05;;;;;;;11.23;9.27;;;;;;;;;;4968370;28;20220;-54
2021/07/22 04:07:30;;;;;;;13.88;9.25;;;;;;;;;;4973535;28;20429;-54
2021/07/22 04:09:56;;;;;;;11.80;8.63;;;;;;;;;;4976558;28;20739;-55
2021/07/22 04:12:21;;;;;;;13.57;8.00;;;;;;;;;;4949089;28;20657;-56
2021/07/22 04:14:46;;;;;;;12.30;7.97;;;;;;;;;;4967868;28;20223;-54
2021/07/22 04:17:11;;;;;;;13.73;8.75;;;;;;;;;;4968409;28;20193;-55
2021/07/22 04:19:37;;;;;;;11.18;8.63;;;;;;;;;;4969506;28;20804;-55
2021/07/22 04:22:02;;;;;;;11.05;8.25;;;;;;;;;;4969682;28;20168;-54
2021/07/22 04:24:27;;;;;;;11.13;8.15;;;;;;;;;;4966400;28;20653;-53
2021/07/22 04:26:52;;;;;;;10.33;8.50;;;;;;;;;;4968217;28;20603;-55
2021/07/22 04:29:17;;;;;;;12.32;8.00;;;;;;;;;;4967350;28;20507;-55
2021/07/22 04:31:43;;;;;;;13.95;8.52;;;;;;;;;;4955079;28;20216;-55
2021/07/22 04:34:08;;;;;;;10.70;7.80;;;;;;;;;;4957497;28;20291;-55
2021/07/22 04:36:33;;;;;;;10.23;8.07;;;;;;;;;;4968285;28;20239;-54
2021/07/22 04:38:58;;;;;;;11.82;8.40;;;;;;;;;;4946209;28;20192;-54
2021/07/22 04:41:23;;;;;;;11.90;8.40;;;;;;;;;;4965015;28;20216;-54
2021/07/22 04:43:48;;;;;;;14.97;8.80;;;;;;;;;;4955575;28;20271;-54
2021/07/22 04:46:14;;;;;;;11.25;8.07;;;;;;;;;;4951649;28;20505;-55
2021/07/22 04:48:40;;;;;;;13.00;8.70;;;;;;;;;;4962284;28;21227;-54
2021/07/22 04:51:05;;;;;;;10.38;8.13;;;;;;;;;;4963049;28;20223;-55
2021/07/22 04:53:31;;;;;;;12.13;8.57;;;;;;;;;;4973976;28;20243;-55
2021/07/22 04:55:57;;;;;;;12.95;8.25;;;;;;;;;;4976748;28;20259;-54
2021/07/22 04:58:22;;;;;;;13.93;8.93;;;;;;;;;;4960685;28;20193;-54
2021/07/22 05:00:47;;;;;;;12.70;8.85;;;;;;;;;;4956868;28;20328;-55
2021/07/22 05:03:12;;;;;;;13.23;8.97;;;;;;;;;;4956152;28;21135;-55
2021/07/22 05:05:37;;;;;;;12.25;8.35;;;;;;;;;;4968803;28;20419;-54
2021/07/22 05:08:03;;;;;;;11.35;9.25;;;;;;;;;;4964228;28;20638;-55
2021/07/22 05:10:28;;;;;;;11.57;8.43;;;;;;;;;;4962974;28;20212;-55
2021/07/22 05:12:56;;;;;;;12.02;9.10;;;;;;;;;;4967532;28;20216;-56
2021/07/22 05:15:22;;;;;;;11.85;8.60;;;;;;;;;;4962121;28;20208;-55
2021/07/22 05:17:47;;;;;;;11.07;8.63;;;;;;;;;;4962475;28;20191;-55
2021/07/22 05:20:12;;;;;;;11.60;8.50;;;;;;;;;;4960596;28;20514;-56
2021/07/22 05:22:37;;;;;;;12.50;8.27;;;;;;;;;;4949845;28;20180;-54
2021/07/22 05:25:02;;;;;;;12.27;9.15;;;;;;;;;;4963994;28;20696;-54
2021/07/22 05:27:28;;;;;;;12.35;9.20;;;;;;;;;;4964142;28;20264;-54
2021/07/22 05:29:53;;;;;;;12.87;9.27;;;;;;;;;;4961864;28;20228;-54
2021/07/22 05:32:18;;;;;;;13.18;9.52;;;;;;;;;;4950374;28;20424;-54
2021/07/22 05:34:43;;;;;;;15.38;8.43;;;;;;;;;;4965722;28;20209;-55
2021/07/22 05:37:10;;;;;;;12.55;9.10;;;;;;;;;;4968159;28;20189;-54
2021/07/22 05:39:36;;;;;;;12.20;9.10;;;;;;;;;;4971769;28;20284;-54
2021/07/22 05:42:01;;;;;;;13.40;8.40;;;;;;;;;;4961231;28;20728;-54
2021/07/22 05:44:26;;;;;;;12.20;9.80;;;;;;;;;;4948696;28;20196;-54
2021/07/22 05:46:51;;;;;;;13.80;9.82;;;;;;;;;;4968227;28;20189;-55
2021/07/22 05:49:16;;;;;;;12.85;9.15;;;;;;;;;;4968307;28;20235;-56
2021/07/22 05:51:41;;;;;;;15.88;9.95;;;;;;;;;;4962480;28;20188;-56
2021/07/22 05:54:08;;;;;;;13.20;9.35;;;;;;;;;;4959270;28;20208;-54
2021/07/22 05:56:33;;;;;;;12.90;9.23;;;;;;;;;;4962412;28;20315;-54
2021/07/22 05:58:58;;;;;;;11.87;9.67;;;;;;;;;;4971819;28;20264;-55
2021/07/22 06:01:23;;;;;;;12.37;9.13;;;;;;;;;;4972959;28;20456;-55
2021/07/22 06:03:48;;;;;;;13.63;8.53;;;;;;;;;;4969066;28;20444;-55
2021/07/22 06:06:14;;;;;;;12.57;9.52;;;;;;;;;;4965493;28;20451;-56
2021/07/22 06:08:39;;;;;;;12.47;9.07;;;;;;;;;;4967014;28;20238;-54
2021/07/22 06:11:05;;;;;;;12.82;9.55;;;;;;;;;;4970732;28;20460;-55
2021/07/22 06:13:31;;;;;;;13.00;9.35;;;;;;;;;;4972248;28;20187;-55
2021/07/22 06:15:57;;;;;;;16.13;10.90;;;;;;;;;;4953096;28;20189;-56
2021/07/22 06:18:22;;;;;;;14.60;10.02;;;;;;;;;;4949784;28;20639;-57
2021/07/22 06:20:47;;;;;;;13.57;9.55;;;;;;;;;;4964910;28;20203;-56
2021/07/22 06:23:13;;;;;;;12.35;8.80;;;;;;;;;;4966004;28;20188;-57
2021/07/22 06:25:38;;;;;;;15.15;9.05;;;;;;;;;;4965913;28;20196;-56
2021/07/22 06:28:03;;;;;;;12.48;8.40;;;;;;;;;;4971009;28;20274;-57
2021/07/22 06:30:31;;;;;;;11.63;8.90;;;;;;;;;;4969408;28;20861;-57
2021/07/22 06:32:56;;;;;;;14.07;8.85;;;;;;;;;;4964342;28;20185;-55
2021/07/22 06:35:21;;;;;;;11.45;8.68;;;;;;;;;;4953383;28;20862;-54
2021/07/22 06:37:47;;;;;;;11.35;8.93;;;;;;;;;;4962672;28;20214;-55
2021/07/22 06:40:12;;;;;;;11.77;8.70;;;;;;;;;;4971832;28;20661;-53
2021/07/22 06:42:38;;;;;;;14.68;9.68;;;;;;;;;;4969360;28;20669;-54
2021/07/22 06:45:03;;;;;;;11.93;8.93;;;;;;;;;;4967517;28;20214;-55
2021/07/22 06:47:28;;;;;;;10.18;7.72;;;;;;;;;;4964784;28;20436;-54
2021/07/22 06:49:54;;;;;;;12.85;8.90;;;;;;;;;;4966597;28;20705;-56
2021/07/22 06:52:19;;;;;;;14.03;9.93;;;;;;;;;;4966842;28;20439;-53
2021/07/22 06:54:44;;;;;;;10.90;8.75;;;;;;;;;;4972644;28;20475;-56
2021/07/22 06:57:09;;;;;;;12.95;9.10;;;;;;;;;;4967142;28;20179;-54
2021/07/22 06:59:34;;;;;;;16.07;8.57;;;;;;;;;;4965487;28;20303;-55
2021/07/22 07:01:59;;;;;;;12.32;9.30;;;;;;;;;;4967948;28;20462;-54
2021/07/22 07:04:25;;;;;;;13.55;9.60;;;;;;;;;;4956417;28;20275;-55
2021/07/22 07:06:50;;;;;;;15.45;10.13;;;;;;;;;;4970109;28;20196;-56
2021/07/22 07:09:15;;;;;;;13.20;8.85;;;;;;;;;;4972872;28;20691;-55
2021/07/22 07:11:40;;;;;;;12.55;9.27;;;;;;;;;;4970759;28;20231;-54
2021/07/22 07:14:05;;;;;;;14.93;9.98;;;;;;;;;;4979911;28;20205;-54
2021/07/22 07:16:31;;;;;;;12.65;8.98;;;;;;;;;;4969443;28;20193;-54
2021/07/22 07:18:56;;;;;;;13.75;8.95;;;;;;;;;;4971889;28;20200;-54
2021/07/22 07:21:21;;;;;;;11.80;8.68;;;;;;;;;;4974748;28;20283;-55
2021/07/22 07:23:47;;;;;;;15.68;9.50;;;;;;;;;;4976642;28;20214;-54
2021/07/22 07:26:12;;;;;;;12.95;9.30;;;;;;;;;;4973891;28;20196;-55
2021/07/22 07:28:38;;;;;;;13.07;9.18;;;;;;;;;;4973241;28;20211;-55
2021/07/22 07:31:03;;;;;;;13.80;9.25;;;;;;;;;;4953476;28;20772;-56
2021/07/22 07:33:28;;;;;;;12.55;9.18;;;;;;;;;;4970056;28;20236;-55
2021/07/22 07:35:56;;;;;;;11.73;8.60;;;;;;;;;;4972479;28;20845;-54
2021/07/22 07:38:22;;;;;;;11.40;8.95;;;;;;;;;;4950519;28;20188;-55
2021/07/22 07:40:47;;;;;;;12.75;9.02;;;;;;;;;;4969476;28;20560;-54
2021/07/22 07:43:13;;;;;;;18.13;9.02;;;;;;;;;;4965344;28;20196;-52
2021/07/22 07:45:38;;;;;;;17.23;9.50;;;;;;;;;;4973354;28;20185;-53
2021/07/22 07:48:04;;;;;;;13.23;9.25;;;;;;;;;;4976258;28;20190;-55
2021/07/22 07:50:29;;;;;;;15.15;9.35;;;;;;;;;;4948024;28;20224;-54
2021/07/22 07:52:54;;;;;;;13.43;9.35;;;;;;;;;;4969414;28;20192;-55
2021/07/22 07:55:19;;;;;;;16.52;10.32;;;;;;;;;;4969664;28;21200;-54
2021/07/22 07:57:44;;;;;;;17.43;10.43;;;;;;;;;;4973327;28;20180;-54
2021/07/22 08:00:10;;;;;;;12.87;9.20;;;;;;;;;;4973006;28;21665;-55
2021/07/22 08:02:35;;;;;;;16.60;9.93;;;;;;;;;;4974768;28;20428;-55
2021/07/22 08:05:01;;;;;;;13.65;9.60;;;;;;;;;;4969424;28;20746;-54
2021/07/22 08:07:26;;;;;;;17.67;10.75;;;;;;;;;;4970212;28;20189;-53
2021/07/22 08:09:51;;;;;;;12.48;9.40;;;;;;;;;;4972140;28;20216;-55
2021/07/22 08:12:16;;;;;;;14.85;10.13;;;;;;;;;;4975608;28;20184;-54
2021/07/22 08:14:42;;;;;;;18.85;10.82;;;;;;;;;;4962409;28;20240;-56
2021/07/22 08:17:07;;;;;;;14.45;10.10;;;;;;;;;;4936064;28;20191;-53
2021/07/22 08:19:32;;;;;;;16.10;10.23;;;;;;;;;;4961961;28;20251;-55
2021/07/22 08:21:58;;;;;;;13.40;9.18;;;;;;;;;;4960677;28;20194;-55
2021/07/22 08:24:23;;;;;;;14.63;8.95;;;;;;;;;;4956228;28;20201;-54
2021/07/22 08:26:48;;;;;;;13.10;9.47;;;;;;;;;;4963352;28;20217;-55
2021/07/22 08:29:13;;;;;;;10.35;8.82;;;;;;;;;;4968285;28;20788;-54
2021/07/22 08:31:39;;;;;;;13.13;9.00;;;;;;;;;;4969593;28;20271;-54
2021/07/22 08:34:04;;;;;;;15.20;9.30;;;;;;;;;;4970712;28;20483;-54
2021/07/22 08:36:29;;;;;;;12.85;9.05;;;;;;;;;;4965271;28;20180;-54
2021/07/22 08:38:55;;;;;;;12.57;8.45;;;;;;;;;;4969414;28;20268;-57
2021/07/22 08:41:20;;;;;;;12.45;8.30;;;;;;;;;;4979468;28;20212;-54
2021/07/22 08:43:48;;;;;;;17.88;8.88;;;;;;;;;;4968200;28;20185;-53
2021/07/22 08:46:13;;;;;;;14.50;8.25;;;;;;;;;;4970575;28;20224;-55
2021/07/22 08:48:39;;;;;;;12.40;8.20;;;;;;;;;;4966595;28;20258;-54
2021/07/22 08:51:05;;;;;;;12.27;8.50;;;;;;;;;;4946766;28;20628;-54
2021/07/22 08:53:30;;;;;;;13.60;8.50;;;;;;;;;;4967091;28;20259;-55
2021/07/22 08:55:58;;;;;;;14.20;8.55;;;;;;;;;;4964748;28;20260;-54
2021/07/22 08:58:24;;;;;;;11.30;8.43;;;;;;;;;;4972473;28;20243;-53
2021/07/22 09:00:50;;;;;;;11.07;8.60;;;;;;;;;;4970557;28;20204;-54
2021/07/22 09:03:15;;;;;;;13.63;8.70;;;;;;;;;;4969491;28;20192;-54
2021/07/22 09:05:41;;;;;;;11.32;8.70;;;;;;;;;;4967979;28;20185;-54
2021/07/22 09:08:06;;;;;;;18.35;9.45;;;;;;;;;;4961014;28;20177;-54
2021/07/22 09:10:31;;;;;;;18.88;9.63;;;;;;;;;;4963021;28;20269;-54
2021/07/22 09:12:56;;;;;;;12.10;8.10;;;;;;;;;;4962561;28;20193;-55
2021/07/22 09:15:25;;;;;;;10.80;8.07;;;;;;;;;;4963560;28;20255;-56
2021/07/22 09:17:51;;;;;;;15.85;8.57;;;;;;;;;;4961467;28;20215;-55
2021/07/22 09:20:26;;;;;;;13.02;8.45;;;;;;;;;;4957637;28;20591;-56
2021/07/22 09:22:51;;;;;;;12.82;8.40;;;;;;;;;;4950409;28;20707;-54
2021/07/22 09:25:18;;;;;;;13.25;9.13;;;;;;;;;;4958265;28;20193;-54
2021/07/22 09:27:44;;;;;;;13.60;9.07;;;;;;;;;;4956831;28;20189;-55
2021/07/22 09:30:16;;;;;;;13.57;8.90;;;;;;;;;;4958696;28;20261;-54
2021/07/22 09:32:44;;;;;;;15.68;8.55;;;;;;;;;;4959575;28;20839;-55
2021/07/22 09:35:09;;;;;;;13.20;9.18;;;;;;;;;;4960400;28;20208;-54
2021/07/22 09:37:36;;;;;;;14.65;9.05;;;;;;;;;;4961836;28;20243;-54
2021/07/22 09:40:01;;;;;;;18.35;10.43;;;;;;;;;;4961310;28;20201;-55
2021/07/22 09:42:38;;;;;;;13.80;8.98;;;;;;;;;;4963005;28;20244;-54
2021/07/22 09:45:09;;;;;;;14.40;9.48;;;;;;;;;;4959654;28;20176;-54
2021/07/22 09:47:35;;;;;;;16.70;10.50;;;;;;;;;;4944303;28;20189;-54
2021/07/22 09:50:07;;;;;;;14.10;9.63;;;;;;;;;;4964228;28;20275;-54
2021/07/22 09:52:32;;;;;;;15.60;10.63;;;;;;;;;;4961328;28;20188;-53
2021/07/22 09:54:57;;;;;;;15.68;10.43;;;;;;;;;;4943860;28;20267;-55
2021/07/22 09:57:23;;;;;;;19.77;11.73;;;;;;;;;;4962616;28;20252;-55
2021/07/22 09:59:49;;;;;;;17.50;11.52;;;;;;;;;;4961707;28;20201;-55
2021/07/22 10:02:19;;;;;;;18.20;11.07;;;;;;;;;;4944482;28;20188;-54
2021/07/22 10:04:51;;;;;;;18.98;12.27;;;;;;;;;;4963781;28;20496;-55
2021/07/22 10:07:18;;;;;;;17.25;12.38;;;;;;;;;;4946429;28;20188;-54
2021/07/22 10:09:45;;;;;;;15.30;10.98;;;;;;;;;;4961328;28;20216;-54
2021/07/22 10:12:10;;;;;;;15.77;11.15;;;;;;;;;;4952375;28;20643;-56
2021/07/22 10:14:36;;;;;;;16.88;11.60;;;;;;;;;;4961055;28;20205;-55
2021/07/22 10:17:03;;;;;;;15.80;11.80;;;;;;;;;;4962317;28;20188;-55
2021/07/22 10:19:30;;;;;;;12.68;9.80;;;;;;;;;;4962592;28;20293;-54
2021/07/22 10:21:55;;;;;;;15.73;10.38;;;;;;;;;;4962042;28;20180;-56
2021/07/22 10:24:22;;;;;;;14.10;10.23;;;;;;;;;;4962275;28;20246;-54
2021/07/22 10:26:47;;;;;;;16.17;9.95;;;;;;;;;;4960928;28;20259;-54
2021/07/22 10:29:12;;;;;;;15.45;11.07;;;;;;;;;;4955250;28;21193;-54
2021/07/22 10:31:42;;;;;;;19.17;11.15;;;;;;;;;;4958798;28;20712;-54
2021/07/22 10:34:09;;;;;;;21.45;12.10;;;;;;;;;;4961985;28;20236;-54
2021/07/22 10:36:36;;;;;;;17.42;11.82;;;;;;;;;;4958672;28;20200;-54
2021/07/22 10:39:01;;;;;;;15.32;10.52;;;;;;;;;;4961515;28;20188;-54
2021/07/22 10:41:36;;;;;;;14.48;10.80;;;;;;;;;;4960224;28;20720;-53
2021/07/22 10:44:01;;;;;;;16.17;12.85;;;;;;;;;;4959295;28;20181;-56
2021/07/22 10:46:46;;;;;;;17.27;12.45;;;;;;;;;;4968143;28;20553;-55
2021/07/22 10:49:13;;;;;;;15.60;12.20;;;;;;;;;;4968970;28;20192;-53
2021/07/22 10:51:41;;;;;;;15.80;11.88;;;;;;;;;;4943240;28;20192;-55
2021/07/22 10:54:06;;;;;;;22.63;11.93;;;;;;;;;;4955142;28;20236;-54
2021/07/22 10:56:34;;;;;;;17.57;12.40;;;;;;;;;;4964900;28;20248;-55
2021/07/22 10:58:59;;;;;;;20.70;13.65;;;;;;;;;;4959775;28;20431;-54
2021/07/22 11:01:43;;;;;;;16.58;12.15;;;;;;;;;;4967144;28;20201;-57
2021/07/22 11:04:09;;;;;;;20.20;12.60;;;;;;;;;;4951772;28;20215;-54
2021/07/22 11:07:00;;;;;;;17.52;12.23;;;;;;;;;;4950620;28;20279;-56
2021/07/22 11:09:44;;;;;;;20.73;12.35;;;;;;;;;;4963468;28;20200;-56
2021/07/22 11:12:10;;;;;;;22.88;12.07;;;;;;;;;;4960792;28;20185;-56
2021/07/22 11:14:35;;;;;;;18.42;11.13;;;;;;;;;;4957913;28;20224;-55
2021/07/22 11:17:01;;;;;;;17.77;11.60;;;;;;;;;;4949981;28;20228;-56
2021/07/22 11:19:27;;;;;;;15.07;11.18;;;;;;;;;;4960059;28;20885;-55
2021/07/22 11:21:52;;;;;;;15.55;11.73;;;;;;;;;;4962645;28;20193;-54
2021/07/22 11:24:25;;;;;;;18.73;11.23;;;;;;;;;;4960687;28;20203;-55
2021/07/22 11:26:51;;;;;;;17.98;11.18;;;;;;;;;;4959994;28;20188;-53
2021/07/22 11:29:17;;;;;;;16.30;11.57;;;;;;;;;;4960191;28;20208;-54
2021/07/22 11:31:42;;;;;;;15.35;11.52;;;;;;;;;;4961980;28;20216;-54
2021/07/22 11:34:07;;;;;;;15.50;10.98;;;;;;;;;;4944241;28;20227;-54
2021/07/22 11:36:32;;;;;;;14.48;10.90;;;;;;;;;;4960875;28;20215;-54
2021/07/22 11:38:58;;;;;;;17.10;11.52;;;;;;;;;;4962294;28;20215;-54
2021/07/22 11:41:23;;;;;;;16.08;12.02;;;;;;;;;;4943607;28;20295;-53
2021/07/22 11:43:53;;;;;;;15.35;11.40;;;;;;;;;;4962087;28;20188;-53
2021/07/22 11:46:33;;;;;;;16.10;12.25;;;;;;;;;;4962771;28;20180;-54
2021/07/22 11:49:03;;;;;;;15.23;11.52;;;;;;;;;;4965149;28;20176;-55
2021/07/22 11:51:28;;;;;;;22.00;12.50;;;;;;;;;;4963218;28;21279;-54
2021/07/22 11:53:56;;;;;;;16.88;12.05;;;;;;;;;;4964423;28;20212;-54
2021/07/22 11:56:21;;;;;;;34.22;12.82;;;;;;;;;;4967065;28;20231;-53
2021/07/22 11:58:47;;;;;;;18.20;13.15;;;;;;;;;;4957713;28;20185;-53
2021/07/22 12:01:13;;;;;;;15.25;11.68;;;;;;;;;;4957757;28;20214;-55
2021/07/22 12:03:38;;;;;;;15.27;11.95;;;;;;;;;;4965875;28;20192;-54
2021/07/22 12:06:04;;;;;;;14.50;12.15;;;;;;;;;;4964009;28;20295;-55
2021/07/22 12:08:29;;;;;;;15.63;12.88;;;;;;;;;;4961790;28;20195;-54
2021/07/22 12:11:03;;;;;;;15.73;12.60;;;;;;;;;;4964792;28;20219;-54
2021/07/22 12:13:45;;;;;;;18.83;14.40;;;;;;;;;;4973007;28;20262;-54
2021/07/22 12:16:11;;;;;;;15.45;13.23;;;;;;;;;;4976366;28;20561;-54
2021/07/22 12:18:37;;;;;;;17.60;14.68;;;;;;;;;;4956148;28;20196;-54
2021/07/22 12:21:02;;;;;;;20.40;15.23;;;;;;;;;;4940810;28;20197;-54
2021/07/22 12:23:28;;;;;;;18.83;13.70;;;;;;;;;;4971150;28;20923;-53
2021/07/22 12:25:57;;;;;;;17.48;14.48;;;;;;;;;;4970475;28;20444;-54
2021/07/22 12:28:22;;;;;;;16.25;13.18;;;;;;;;;;4971231;28;20181;-55
2021/07/22 12:30:48;;;;;;;20.15;15.38;;;;;;;;;;4965184;28;20209;-55
2021/07/22 12:33:19;;;;;;;16.13;13.90;;;;;;;;;;4964092;28;20189;-55
2021/07/22 12:35:44;;;;;;;18.77;14.38;;;;;;;;;;4945837;28;20200;-55
2021/07/22 12:38:09;;;;;;;16.83;13.55;;;;;;;;;;4966849;28;20842;-55
2021/07/22 12:40:44;;;;;;;17.63;14.05;;;;;;;;;;4963648;28;20285;-54
2021/07/22 12:43:16;;;;;;;22.48;13.93;;;;;;;;;;4962842;28;20422;-55
2021/07/22 12:45:41;;;;;;;18.27;14.50;;;;;;;;;;4965949;28;20563;-55
2021/07/22 12:48:07;;;;;;;16.08;12.82;;;;;;;;;;4967507;28;20189;-55
2021/07/22 12:50:40;;;;;;;20.20;12.73;;;;;;;;;;4960196;28;20220;-55
2021/07/22 12:53:07;;;;;;;20.63;14.23;;;;;;;;;;4957997;28;20189;-55
2021/07/22 12:55:33;;;;;;;15.23;13.05;;;;;;;;;;4968522;28;20212;-56
2021/07/22 12:57:59;;;;;;;16.88;12.77;;;;;;;;;;4969269;28;20184;-55
2021/07/22 13:00:24;;;;;;;19.63;12.55;;;;;;;;;;4955757;28;20641;-55
2021/07/22 13:02:56;;;;;;;16.50;12.18;;;;;;;;;;4957979;28;20173;-55
2021/07/22 13:05:22;;;;;;;21.30;11.85;;;;;;;;;;4967138;28;20192;-54
2021/07/22 13:07:50;;;;;;;15.00;11.68;;;;;;;;;;4970244;28;20564;-54
2021/07/22 13:10:16;;;;;;;17.80;12.52;;;;;;;;;;4981391;28;20196;-54
2021/07/22 13:12:42;;;;;;;13.27;11.88;;;;;;;;;;4972335;28;20192;-54
2021/07/22 13:15:07;;;;;;;15.60;12.13;;;;;;;;;;4967556;28;20340;-54
2021/07/22 13:17:38;;;;;;;15.82;12.23;;;;;;;;;;4958711;28;20181;-54
2021/07/22 13:20:04;;;;;;;16.00;11.70;;;;;;;;;;4959144;28;20204;-54
2021/07/22 13:22:29;;;;;;;16.95;11.27;;;;;;;;;;4961501;28;20185;-54
2021/07/22 13:24:54;;;;;;;13.93;11.50;;;;;;;;;;4947474;28;20232;-55
2021/07/22 13:27:20;;;;;;;16.83;11.90;;;;;;;;;;4975325;28;20438;-54
2021/07/22 13:29:45;;;;;;;16.73;11.97;;;;;;;;;;4954890;28;20585;-55
2021/07/22 13:32:10;;;;;;;17.58;11.43;;;;;;;;;;4967441;28;20491;-54
2021/07/22 13:34:37;;;;;;;19.27;13.07;;;;;;;;;;4981328;28;20211;-55
2021/07/22 13:37:02;;;;;;;15.30;11.65;;;;;;;;;;4965680;28;20185;-54
2021/07/22 13:39:27;;;;;;;16.42;11.30;;;;;;;;;;4946823;28;20231;-54
2021/07/22 13:41:53;;;;;;;14.80;12.00;;;;;;;;;;4954209;28;20200;-54
2021/07/22 13:44:18;;;;;;;15.43;11.70;;;;;;;;;;4958853;28;20467;-55
2021/07/22 13:46:43;;;;;;;13.88;12.38;;;;;;;;;;4965646;28;20451;-54
2021/07/22 13:49:08;;;;;;;13.87;11.10;;;;;;;;;;4961845;28;20184;-54
2021/07/22 13:51:33;;;;;;;16.60;11.37;;;;;;;;;;4967742;28;20440;-55
2021/07/22 13:53:59;;;;;;;14.40;11.45;;;;;;;;;;4968244;28;20455;-56
2021/07/22 13:56:24;;;;;;;15.50;11.27;;;;;;;;;;4964729;28;20193;-55
2021/07/22 13:58:49;;;;;;;17.30;11.17;;;;;;;;;;4968612;28;20256;-55
2021/07/22 14:01:14;;;;;;;14.70;10.63;;;;;;;;;;4965138;28;20476;-55
2021/07/22 14:03:39;;;;;;;13.60;11.67;;;;;;;;;;4941429;28;20188;-54
2021/07/22 14:06:04;;;;;;;14.67;10.37;;;;;;;;;;4978278;28;20419;-55
2021/07/22 14:08:30;;;;;;;13.07;10.83;;;;;;;;;;4965155;28;20444;-55
2021/07/22 14:10:55;;;;;;;15.43;12.05;;;;;;;;;;4965893;28;20455;-56
2021/07/22 14:13:20;;;;;;;14.65;11.38;;;;;;;;;;4959603;28;20186;-55
2021/07/22 14:15:45;;;;;;;15.95;11.57;;;;;;;;;;4967492;28;20283;-54
2021/07/22 14:18:10;;;;;;;14.27;8.57;;;;;;;;;;4967164;28;20181;-55